Time;durP1;ratioP1;P1;durP2;ratioP2;P2;SDS_P1;SDS_P2;PMS_P1;PMS_P2;Temp;Humidity;BMP_temperature;BMP_pressure;BME280_temperature;BME280_humidity;BME280_pressure;Samples;Min_cycle;Max_cycle;Signal;HPM_P1;HPM_P2
2022/06/21 00:00:50;;;;;;;6.32;2.33;;;;;;;10.14;100.00;100785.88;5028055;28;20434;-85
2022/06/21 00:03:21;;;;;;;7.03;2.58;;;;;;;10.16;100.00;100786.44;5028876;28;20430;-85
2022/06/21 00:05:55;;;;;;;8.88;2.70;;;;;;;10.11;100.00;100778.28;5029495;28;20411;-85
2022/06/21 00:08:27;;;;;;;6.88;2.58;;;;;;;10.16;100.00;100785.59;5027727;28;20430;-85
2022/06/21 00:11:01;;;;;;;5.38;2.30;;;;;;;10.16;100.00;100793.75;5024455;28;20422;-85
2022/06/21 00:13:35;;;;;;;5.78;2.30;;;;;;;10.10;100.00;100792.94;5025612;28;20781;-87
2022/06/21 00:16:14;;;;;;;4.83;2.60;;;;;;;10.04;100.00;100797.56;5030966;28;20430;-83
2022/06/21 00:18:44;;;;;;;8.60;2.63;;;;;;;10.17;100.00;100801.63;5031795;28;20430;-87
2022/06/21 00:21:20;;;;;;;4.80;2.35;;;;;;;10.09;100.00;100802.19;5030673;28;20434;-84
2022/06/21 00:23:50;;;;;;;4.05;2.10;;;;;;;10.13;100.00;100810.63;5036632;28;20415;-88
2022/06/21 00:26:25;;;;;;;8.23;2.45;;;;;;;10.18;100.00;100811.44;5033531;28;20442;-86
2022/06/21 00:28:59;;;;;;;6.22;2.30;;;;;;;10.18;100.00;100807.91;5031997;28;20411;-86
2022/06/21 00:31:36;;;;;;;5.65;2.20;;;;;;;10.24;100.00;100814.97;5036316;28;20422;-88
2022/06/21 00:34:15;;;;;;;5.82;2.30;;;;;;;10.17;100.00;100803.56;5033383;28;20445;-87
2022/06/21 00:36:49;;;;;;;5.13;2.20;;;;;;;10.21;100.00;100818.22;5043597;28;20433;-86
2022/06/21 00:39:22;;;;;;;5.78;2.13;;;;;;;10.21;100.00;100815.50;5034746;28;20450;-85
2022/06/21 00:41:53;;;;;;;4.60;2.00;;;;;;;10.21;100.00;100813.59;5034797;28;20423;-85
2022/06/21 00:44:33;;;;;;;4.57;2.28;;;;;;;10.22;100.00;100811.72;5031493;28;20426;-85
2022/06/21 00:47:17;;;;;;;5.07;2.20;;;;;;;10.13;100.00;100808.72;5033409;28;20430;-85
2022/06/21 00:49:51;;;;;;;5.82;2.10;;;;;;;10.18;100.00;100807.91;5031146;28;20419;-84
2022/06/21 00:52:38;;;;;;;5.95;2.20;;;;;;;10.20;100.00;100811.16;5030639;28;20791;-84
2022/06/21 00:55:17;;;;;;;5.32;2.35;;;;;;;10.18;100.00;100807.91;5032391;28;20427;-86
2022/06/21 00:57:53;;;;;;;4.37;1.90;;;;;;;10.13;100.00;100808.72;5025173;28;20426;-85
2022/06/21 01:00:33;;;;;;;4.13;2.10;;;;;;;10.19;100.00;100809.50;5034900;28;20423;-86
2022/06/21 01:03:14;;;;;;;6.25;2.10;;;;;;;10.17;100.00;100807.06;5031744;28;20415;-86
2022/06/21 01:05:45;;;;;;;5.55;2.17;;;;;;;10.07;100.00;100804.38;5035368;28;20419;-86
2022/06/21 01:08:21;;;;;;;7.50;2.60;;;;;;;10.00;100.00;100803.84;5030978;28;20423;-83
2022/06/21 01:11:01;;;;;;;5.35;2.47;;;;;;;10.01;100.00;100800.84;5034153;28;20423;-84
2022/06/21 01:13:38;;;;;;;7.40;2.60;;;;;;;10.06;100.00;100805.47;5031474;28;20434;-83
2022/06/21 01:16:13;;;;;;;7.80;2.70;;;;;;;10.08;100.00;100805.19;5035818;28;20435;-87
2022/06/21 01:18:44;;;;;;;5.40;2.42;;;;;;;10.06;100.00;100808.19;5030679;28;20427;-85
2022/06/21 01:21:19;;;;;;;9.43;2.65;;;;;;;10.02;100.00;100807.09;5035088;28;20422;-84
2022/06/21 01:24:08;;;;;;;6.13;2.60;;;;;;;10.02;100.00;100804.38;5033838;28;20411;-86
2022/06/21 01:26:48;;;;;;;6.82;2.47;;;;;;;10.03;100.00;100804.09;5032688;28;20430;-86
2022/06/21 01:29:25;;;;;;;5.93;2.65;;;;;;;10.04;100.00;100807.66;5029853;28;20908;-86
2022/06/21 01:32:02;;;;;;;8.80;2.90;;;;;;;10.03;100.00;100812.25;5031967;28;20422;-85
2022/06/21 01:34:35;;;;;;;8.10;2.83;;;;;;;10.06;100.00;100800.03;5036129;28;20421;-86
2022/06/21 01:37:13;;;;;;;5.25;2.58;;;;;;;10.04;100.00;100813.09;5030284;28;20430;-83
2022/06/21 01:39:52;;;;;;;8.15;3.00;;;;;;;9.99;100.00;100811.16;5036435;28;20746;-86
2022/06/21 01:42:31;;;;;;;5.85;2.55;;;;;;;9.99;100.00;100818.53;5026489;28;20419;-86
2022/06/21 01:45:08;;;;;;;7.72;2.90;;;;;;;9.92;100.00;100807.13;5030959;28;20423;-85
2022/06/21 01:47:47;;;;;;;6.70;2.55;;;;;;;9.97;100.00;100823.41;5045608;28;20441;-86
2022/06/21 01:50:22;;;;;;;6.53;2.60;;;;;;;9.99;100.00;100805.72;5034043;28;20891;-86
2022/06/21 01:52:56;;;;;;;6.78;2.83;;;;;;;9.91;100.00;100810.91;5024489;28;20430;-89
2022/06/21 01:55:28;;;;;;;8.63;2.92;;;;;;;9.98;100.00;100814.97;5030081;28;20415;-86
2022/06/21 01:58:01;;;;;;;7.82;2.60;;;;;;;9.96;100.00;100814.44;5031056;28;20897;-88
2022/06/21 02:00:37;;;;;;;8.20;2.67;;;;;;;9.92;100.00;100816.06;5029472;28;20777;-85
2022/06/21 02:03:16;;;;;;;5.65;2.50;;;;;;;9.86;100.00;100811.75;5030852;28;20430;-89
2022/06/21 02:05:53;;;;;;;6.78;2.45;;;;;;;9.94;100.00;100813.06;5037115;28;20885;-88
2022/06/21 02:08:34;;;;;;;7.80;2.70;;;;;;;9.90;100.00;100807.34;5030996;28;20426;-86
2022/06/21 02:11:15;;;;;;;8.73;2.70;;;;;;;9.93;100.00;100795.13;5029642;28;20418;-88
2022/06/21 02:14:28;;;;;;;7.15;2.47;;;;;;;9.84;100.00;100803.03;5024756;28;20427;-89
2022/06/21 02:16:46;;;;;;;6.38;2.63;;;;;;;9.90;100.00;100801.91;5028329;28;20417;-88
2022/06/21 02:19:26;;;;;;;9.73;2.80;;;;;;;9.94;100.00;100797.56;5029377;28;20434;-87
2022/06/21 02:22:00;;;;;;;6.87;2.80;;;;;;;9.83;100.00;100795.94;5034148;28;20473;-87
2022/06/21 02:24:33;;;;;;;9.48;3.10;;;;;;;9.75;100.00;100783.72;5027917;28;20426;-87
2022/06/21 02:27:06;;;;;;;9.52;3.20;;;;;;;9.88;100.00;100790.53;5031411;28;20422;-86
2022/06/21 02:29:42;;;;;;;7.07;3.08;;;;;;;9.80;100.00;100789.16;5029177;28;20419;-86
2022/06/21 02:32:27;;;;;;;9.10;3.28;;;;;;;9.87;100.00;100786.16;5031481;28;20434;-86
2022/06/21 02:35:08;;;;;;;8.52;2.92;;;;;;;9.78;100.00;100787.81;5031855;28;20422;-87
2022/06/21 02:37:42;;;;;;;7.07;2.80;;;;;;;9.74;100.00;100792.97;5026667;28;20415;-83
2022/06/21 02:40:20;;;;;;;9.73;3.30;;;;;;;9.73;100.00;100780.47;5030384;28;20415;-85
2022/06/21 02:42:58;;;;;;;9.30;3.25;;;;;;;9.79;100.00;100801.13;5031695;28;20420;-86
2022/06/21 02:45:32;;;;;;;7.90;3.05;;;;;;;9.77;100.00;100789.69;5028526;28;20425;-88
2022/06/21 02:48:11;;;;;;;8.85;3.55;;;;;;;9.77;100.00;100791.63;5026611;28;20455;-83
2022/06/21 02:50:49;;;;;;;9.55;3.70;;;;;;;9.77;100.00;100786.19;5025406;28;20423;-90
2022/06/21 02:53:22;;;;;;;7.95;3.35;;;;;;;9.81;100.00;100795.41;5033699;28;20432;-88
2022/06/21 02:56:00;;;;;;;8.23;3.50;;;;;;;9.72;100.00;100795.13;5027914;28;20438;-87
2022/06/21 02:58:38;;;;;;;9.13;3.83;;;;;;;9.74;100.00;100789.44;5029743;28;20403;-85
2022/06/21 03:01:19;;;;;;;9.87;3.70;;;;;;;9.78;100.00;100799.50;5023315;28;20432;-84
2022/06/21 03:03:52;;;;;;;7.40;3.58;;;;;;;9.73;100.00;100794.03;5030521;28;20423;-84
2022/06/21 03:06:28;;;;;;;9.27;3.75;;;;;;;9.76;100.00;100798.94;5030760;28;20426;-86
2022/06/21 03:09:03;;;;;;;9.25;3.60;;;;;;;9.82;100.00;100799.78;5030186;28;20430;-85
2022/06/21 03:11:40;;;;;;;10.82;3.65;;;;;;;9.78;100.00;100807.66;5029836;28;20438;-85
2022/06/21 03:14:12;;;;;;;9.93;3.77;;;;;;;9.76;100.00;100806.28;5032242;28;20466;-86
2022/06/21 03:16:48;;;;;;;8.95;3.97;;;;;;;9.79;100.00;100806.56;5023327;28;20425;-86
2022/06/21 03:19:26;;;;;;;8.25;3.67;;;;;;;9.79;100.00;100803.84;5031093;28;20430;-86
2022/06/21 03:21:59;;;;;;;10.00;3.88;;;;;;;9.86;100.00;100806.31;5030202;28;20426;-84
2022/06/21 03:24:33;;;;;;;9.80;3.80;;;;;;;9.94;100.00;100803.00;5032249;28;20515;-87
2022/06/21 03:27:15;;;;;;;8.80;3.73;;;;;;;9.96;100.00;100809.00;5028810;28;20430;-84
2022/06/21 03:29:48;;;;;;;10.23;3.42;;;;;;;9.93;100.00;100806.00;5022595;28;20407;-84
2022/06/21 03:32:23;;;;;;;11.40;3.50;;;;;;;9.93;100.00;100806.84;5028278;28;20761;-86
2022/06/21 03:34:53;;;;;;;9.10;3.78;;;;;;;9.95;100.00;100807.38;5033942;28;20417;-87
2022/06/21 03:37:26;;;;;;;12.30;3.70;;;;;;;9.96;100.00;100802.75;5031569;28;20426;-84
2022/06/21 03:42:53;;;;;;;7.80;3.50;;;;;;;9.88;100.00;100807.63;5031116;28;20434;-87
2022/06/21 03:45:32;;;;;;;9.48;3.60;;;;;;;9.82;100.00;100814.16;5032206;28;20953;-85
2022/06/21 03:48:14;;;;;;;13.38;3.90;;;;;;;9.77;100.00;100805.19;5025692;28;20434;-86
2022/06/21 03:50:49;;;;;;;10.90;3.70;;;;;;;9.88;100.00;100817.69;5028645;28;20799;-85
2022/06/21 03:53:28;;;;;;;7.55;3.30;;;;;;;9.95;100.00;100820.16;5027839;28;20768;-84
2022/06/21 03:56:05;;;;;;;10.55;3.40;;;;;;;10.04;100.00;100823.97;5026319;28;20435;-85
2022/06/21 03:58:49;;;;;;;10.02;3.45;;;;;;;10.12;100.00;100825.31;5027294;28;20428;-86
2022/06/21 04:01:27;;;;;;;12.10;3.40;;;;;;;10.25;100.00;100834.81;5024538;28;20417;-86
2022/06/21 04:04:09;;;;;;;11.27;3.47;;;;;;;10.31;100.00;100845.41;5032697;28;21153;-86
2022/06/21 04:06:47;;;;;;;9.75;3.30;;;;;;;10.41;100.00;100839.16;5029510;28;20434;-84
2022/06/21 04:09:24;;;;;;;9.98;3.38;;;;;;;10.45;100.00;100832.09;5030153;28;20407;-83
2022/06/21 04:12:05;;;;;;;10.70;3.38;;;;;;;10.54;100.00;100838.59;5029604;28;20787;-87
2022/06/21 04:14:42;;;;;;;8.70;3.03;;;;;;;10.57;100.00;100841.88;5033052;28;20460;-84
2022/06/21 04:17:24;;;;;;;10.05;3.17;;;;;;;10.58;100.00;100844.31;5028145;28;20423;-85
2022/06/21 04:20:04;;;;;;;10.80;3.35;;;;;;;10.59;100.00;100840.50;5026135;28;20423;-85
2022/06/21 04:22:42;;;;;;;7.20;2.90;;;;;;;10.62;100.00;100847.28;5028446;28;20457;-84
2022/06/21 04:25:15;;;;;;;11.77;3.45;;;;;;;10.62;100.00;100842.69;5028673;28;20755;-84
2022/06/21 04:27:55;;;;;;;8.57;2.80;;;;;;;10.67;100.00;100839.91;5029209;28;20435;-86
2022/06/21 04:30:35;;;;;;;11.60;3.33;;;;;;;10.67;100.00;100842.66;5028562;28;20440;-86
2022/06/21 04:33:13;;;;;;;9.55;3.25;;;;;;;10.73;100.00;100846.19;5025621;28;20433;-85
2022/06/21 04:35:53;;;;;;;10.30;3.03;;;;;;;10.80;100.00;100845.88;5031191;28;20427;-84
2022/06/21 04:38:32;;;;;;;10.52;2.80;;;;;;;10.75;100.00;100849.44;5029663;28;20453;-87
2022/06/21 04:41:06;;;;;;;9.00;2.90;;;;;;;10.84;100.00;100852.41;5031849;28;20431;-85
2022/06/21 04:43:43;;;;;;;11.30;2.80;;;;;;;10.87;100.00;100852.66;5030769;28;20427;-83
2022/06/21 04:46:25;;;;;;;8.83;2.87;;;;;;;10.97;100.00;100862.72;5027733;28;20647;-84
2022/06/21 04:49:03;;;;;;;9.13;2.63;;;;;;;10.96;100.00;100861.06;5043089;28;20759;-84
2022/06/21 04:51:42;;;;;;;10.70;3.00;;;;;;;10.95;100.00;100854.00;5027165;28;20424;-84
2022/06/21 04:54:17;;;;;;;10.00;2.63;;;;;;;11.14;100.00;100869.72;5028001;28;20399;-84
2022/06/21 04:57:09;;;;;;;9.07;2.80;;;;;;;11.25;100.00;100862.31;5021333;28;21063;-88
2022/06/21 04:59:45;;;;;;;8.63;2.65;;;;;;;11.39;100.00;100871.50;5022614;28;20432;-86
2022/06/21 05:02:22;;;;;;;8.77;2.57;;;;;;;11.64;100.00;100859.66;5027059;28;20926;-89
2022/06/21 05:04:59;;;;;;;10.00;2.70;;;;;;;11.78;100.00;100854.38;5027933;28;20419;-84
2022/06/21 05:07:32;;;;;;;9.65;2.38;;;;;;;12.01;100.00;100865.69;5029101;28;20717;-84
2022/06/21 05:10:07;;;;;;;7.90;2.40;;;;;;;12.29;100.00;100861.38;5028227;28;20757;-86
2022/06/21 05:12:43;;;;;;;6.35;2.17;;;;;;;12.99;100.00;100868.28;5026113;28;20419;-87
2022/06/21 05:15:19;;;;;;;6.85;2.10;;;;;;;12.64;100.00;100872.25;5028076;28;20450;-85
2022/06/21 05:17:57;;;;;;;7.73;2.00;;;;;;;12.90;100.00;100878.22;5032357;28;20427;-83
2022/06/21 05:20:35;;;;;;;6.95;2.17;;;;;;;13.56;100.00;100875.78;5030192;28;20423;-87
2022/06/21 05:23:13;;;;;;;8.33;2.10;;;;;;;14.84;100.00;100872.84;5031928;28;20431;-87
2022/06/21 05:25:47;;;;;;;7.15;2.15;;;;;;;16.09;100.00;100869.06;5027386;28;20430;-89
2022/06/21 05:28:26;;;;;;;5.88;1.90;;;;;;;17.19;100.00;100861.16;5029414;28;20458;-88
2022/06/21 05:31:06;;;;;;;5.65;1.70;;;;;;;17.92;100.00;100852.34;5029544;28;20906;-84
2022/06/21 05:33:42;;;;;;;5.13;1.60;;;;;;;18.00;100.00;100853.47;5024625;28;20427;-82
2022/06/21 05:36:21;;;;;;;7.70;1.92;;;;;;;18.25;100.00;100864.78;5034536;28;20446;-87
2022/06/21 05:38:59;;;;;;;5.35;1.50;;;;;;;18.11;100.00;100863.00;5023200;28;20426;-86
2022/06/21 05:41:37;;;;;;;5.53;1.42;;;;;;;16.71;100.00;100857.28;5034875;28;20460;-84
2022/06/21 05:44:13;;;;;;;7.03;1.40;;;;;;;16.96;100.00;100861.28;5026254;28;20887;-86
2022/06/21 05:46:49;;;;;;;5.90;1.60;;;;;;;16.55;100.00;100856.09;5028126;28;20426;-86
2022/06/21 05:49:21;;;;;;;5.80;1.50;;;;;;;16.27;100.00;100862.56;5033253;28;20411;-84
2022/06/21 05:52:00;;;;;;;8.90;1.98;;;;;;;15.51;100.00;100865.16;5029827;28;20423;-83
2022/06/21 05:54:39;;;;;;;7.38;1.70;;;;;;;15.29;100.00;100862.06;5030361;28;20803;-85
2022/06/21 05:57:18;;;;;;;7.03;1.63;;;;;;;15.18;100.00;100863.41;5029063;28;20423;-86
2022/06/21 05:59:51;;;;;;;5.45;1.50;;;;;;;15.57;100.00;100870.22;5027686;28;20419;-85
2022/06/21 06:02:31;;;;;;;7.80;1.60;;;;;;;15.33;100.00;100866.94;5021889;28;20624;-86
2022/06/21 06:05:12;;;;;;;7.95;1.83;;;;;;;15.30;100.00;100873.84;5017619;28;20939;-84
2022/06/21 06:07:51;;;;;;;6.35;1.80;;;;;;;15.11;100.00;100882.19;5028410;28;20783;-86
2022/06/21 06:10:23;;;;;;;8.32;1.88;;;;;;;14.89;100.00;100871.97;5030054;28;20433;-87
2022/06/21 06:12:56;;;;;;;6.07;1.80;;;;;;;15.08;100.00;100886.38;5029595;28;20787;-86
2022/06/21 06:15:34;;;;;;;6.30;1.85;;;;;;;15.11;100.00;100883.00;5018364;28;20919;-84
2022/06/21 06:18:16;;;;;;;7.97;1.80;;;;;;;15.40;100.00;100875.56;5016709;28;20432;-85
2022/06/21 06:20:56;;;;;;;5.25;1.65;;;;;;;15.17;100.00;100878.22;5038455;28;20432;-87
2022/06/21 06:23:32;;;;;;;7.88;1.67;;;;;;;15.65;100.00;100874.19;5028363;28;20427;-88
2022/06/21 06:26:06;;;;;;;9.27;2.10;;;;;;;15.88;100.00;100872.31;5030514;28;20427;-87
2022/06/21 06:28:41;;;;;;;8.07;2.10;;;;;;;15.78;100.00;100872.50;5039416;28;20432;-89
2022/06/21 06:31:21;;;;;;;7.32;1.83;;;;;;;15.54;100.00;100876.34;5026436;28;20435;-82
2022/06/21 06:33:58;;;;;;;5.60;1.70;;;;;;;15.62;100.00;100858.34;5022329;28;20439;-89
2022/06/21 06:36:58;;;;;;;9.68;1.95;;;;;;;15.51;100.00;100863.25;5028024;28;21044;-87
2022/06/21 06:39:49;;;;;;;6.47;1.90;;;;;;;15.26;100.00;100870.09;5026065;28;20427;-89
2022/06/21 06:42:45;;;;;;;5.55;1.70;;;;;;;15.29;100.00;100873.03;5029779;28;20419;-85
2022/06/21 06:45:35;;;;;;;9.77;1.80;;;;;;;15.43;100.00;100870.25;5031762;28;20436;-88
2022/06/21 06:48:26;;;;;;;6.38;1.88;;;;;;;15.63;100.00;100871.75;5030105;28;20777;-87
2022/06/21 06:51:07;;;;;;;6.18;1.75;;;;;;;15.57;100.00;100862.00;5024663;28;20447;-89
2022/06/21 06:53:57;;;;;;;4.83;1.50;;;;;;;15.21;100.00;100856.50;5026422;28;20423;-86
2022/06/21 06:56:54;;;;;;;7.13;1.70;;;;;;;15.24;100.00;100848.47;5025261;28;20444;-88
2022/06/21 06:59:56;;;;;;;6.05;1.70;;;;;;;15.28;100.00;100860.44;5027845;28;20417;-88
2022/06/21 07:02:46;;;;;;;5.40;1.60;;;;;;;15.43;100.00;100869.47;5019626;28;20438;-86
2022/06/21 07:05:41;;;;;;;8.57;1.90;;;;;;;15.72;100.00;100868.28;5026035;28;20421;-91
2022/06/21 07:08:34;;;;;;;7.28;1.70;;;;;;;15.59;100.00;100862.50;5030012;28;20429;-86
2022/06/21 07:11:21;;;;;;;7.68;1.55;;;;;;;15.64;100.00;100869.81;5023154;28;20936;-87
2022/06/21 07:13:54;;;;;;;6.40;1.50;;;;;;;15.97;100.00;100862.19;5023438;28;20438;-90
2022/06/21 07:16:31;;;;;;;4.78;1.70;;;;;;;15.99;100.00;100853.63;5024724;28;20428;-90
2022/06/21 07:19:05;;;;;;;5.95;1.60;;;;;;;16.10;100.00;100863.25;5024269;28;20427;-88
2022/06/21 07:21:39;;;;;;;5.85;1.42;;;;;;;16.17;100.00;100864.75;4971544;28;20501;-85
2022/06/21 07:24:16;;;;;;;5.78;1.52;;;;;;;16.28;100.00;100880.66;5021317;28;20462;-90
2022/06/21 07:26:54;;;;;;;6.55;1.55;;;;;;;16.30;100.00;100867.41;5025395;28;20439;-87
2022/06/21 07:29:29;;;;;;;6.18;1.73;;;;;;;16.40;100.00;100874.56;5022634;28;20433;-86
2022/06/21 07:32:09;;;;;;;7.53;1.60;;;;;;;16.40;100.00;100865.53;5023090;28;21037;-87
2022/06/21 07:34:45;;;;;;;6.35;1.67;;;;;;;16.47;100.00;100858.47;5027458;28;20866;-86
2022/06/21 07:37:22;;;;;;;7.03;1.50;;;;;;;16.31;100.00;100851.75;5018804;28;20437;-88
2022/06/21 07:39:54;;;;;;;5.07;1.42;;;;;;;16.15;100.00;100862.31;5027307;28;20830;-88
2022/06/21 07:42:32;;;;;;;4.20;1.37;;;;;;;16.31;100.00;100869.03;5029847;28;20415;-90
2022/06/21 07:45:05;;;;;;;4.28;1.40;;;;;;;16.10;100.00;100860.53;5024197;28;20425;-84
2022/06/21 07:47:47;;;;;;;5.78;1.40;;;;;;;16.26;100.00;100862.88;5018271;28;20431;-86
2022/06/21 07:50:23;;;;;;;5.80;1.38;;;;;;;16.30;100.00;100866.59;5028366;28;20430;-86
2022/06/21 07:53:00;;;;;;;4.70;1.30;;;;;;;16.21;100.00;100847.31;5026205;28;20883;-88
2022/06/21 07:55:40;;;;;;;4.97;1.33;;;;;;;16.33;100.00;100847.56;5045101;28;20418;-88
2022/06/21 07:58:16;;;;;;;6.03;1.58;;;;;;;16.63;100.00;100855.31;5031153;28;20416;-88
2022/06/21 08:06:42;;;;;;;3.95;1.10;;;;;;;16.72;100.00;100856.13;5025428;28;20814;-86
2022/06/21 08:09:23;;;;;;;3.55;1.20;;;;;;;16.76;100.00;100859.88;5024910;28;20427;-87
2022/06/21 08:12:00;;;;;;;4.63;1.30;;;;;;;16.72;100.00;100861.63;5026919;28;20902;-86
2022/06/21 08:14:30;;;;;;;5.07;1.20;;;;;;;17.09;100.00;100864.22;5027104;28;20407;-87
2022/06/21 08:17:14;;;;;;;3.28;1.10;;;;;;;17.06;100.00;100873.13;5020731;28;20768;-85
2022/06/21 08:19:54;;;;;;;5.50;1.30;;;;;;;17.29;100.00;100865.56;5022657;28;20417;-85
2022/06/21 08:22:28;;;;;;;3.40;1.27;;;;;;;17.36;100.00;100859.56;5024370;28;20512;-85
2022/06/21 08:25:13;;;;;;;3.72;1.13;;;;;;;17.41;100.00;100856.69;5028339;28;20434;-84
2022/06/21 08:27:53;;;;;;;5.97;1.27;;;;;;;17.39;100.00;100858.97;5026653;28;20407;-84
2022/06/21 08:30:33;;;;;;;5.13;1.37;;;;;;;17.42;100.00;100866.56;5030279;28;20445;-91
2022/06/21 08:33:10;;;;;;;4.47;1.20;;;;;;;17.73;100.00;100860.91;5034481;28;20430;-86
2022/06/21 08:35:44;;;;;;;3.72;1.20;;;;;;;17.63;100.00;100864.78;5026317;28;20420;-87
2022/06/21 08:38:24;;;;;;;5.00;1.10;;;;;;;17.70;100.00;100856.03;5027321;28;20442;-85
2022/06/21 08:44:33;;;;;;;3.08;1.20;;;;;;;17.58;100.00;100850.38;5026222;28;20433;-85
2022/06/21 08:47:40;;;;;;;5.40;1.05;;;;;;;17.78;100.00;100860.75;5032348;28;20419;-86
2022/06/21 08:50:46;;;;;;;4.47;1.27;;;;;;;17.87;100.00;100854.41;5015313;28;20435;-87
2022/06/21 08:53:46;;;;;;;3.42;1.10;;;;;;;17.94;100.00;100863.03;5029896;28;20419;-86
2022/06/21 08:56:18;;;;;;;3.90;1.05;;;;;;;18.14;100.00;100861.53;5032731;28;20791;-86
2022/06/21 08:59:03;;;;;;;3.75;1.00;;;;;;;18.12;100.00;100863.84;5028602;28;20413;-85
2022/06/21 09:01:43;;;;;;;5.72;1.17;;;;;;;18.09;100.00;100865.28;5026150;28;20761;-87
2022/06/21 09:04:26;;;;;;;4.78;1.13;;;;;;;18.28;100.00;100859.41;5029499;28;20433;-86
2022/06/21 09:07:18;;;;;;;3.33;1.00;;;;;;;18.34;100.00;100860.06;4975618;28;21360;-84
2022/06/21 09:10:07;;;;;;;4.47;1.27;;;;;;;18.61;100.00;100858.81;5015852;28;20783;-86
2022/06/21 09:12:53;;;;;;;4.25;1.20;;;;;;;18.66;100.00;100858.63;4999534;28;21151;-83
2022/06/21 09:15:38;;;;;;;3.53;1.30;;;;;;;18.84;100.00;100870.41;4996069;28;20416;-89
2022/06/21 09:18:29;;;;;;;3.75;1.15;;;;;;;19.01;100.00;100865.97;4995958;28;20935;-87
2022/06/21 09:21:06;;;;;;;7.07;1.23;;;;;;;19.30;100.00;100870.66;5004947;28;20423;-85
2022/06/21 09:23:57;;;;;;;3.65;1.23;;;;;;;19.27;100.00;100876.06;4996490;28;20434;-86
2022/06/21 09:26:35;;;;;;;3.72;1.13;;;;;;;19.14;100.00;100875.97;5007354;28;20430;-84
2022/06/21 09:29:19;;;;;;;4.82;1.10;;;;;;;19.27;100.00;100865.81;5005296;28;20426;-84
2022/06/21 09:32:01;;;;;;;5.30;1.30;;;;;;;19.03;100.00;100874.75;5004421;28;20433;-84
2022/06/21 09:34:45;;;;;;;4.80;1.20;;;;;;;18.86;100.00;100867.31;4994303;28;20453;-85
2022/06/21 09:37:28;;;;;;;3.57;1.23;;;;;;;18.96;100.00;100868.91;5004416;28;20423;-83
2022/06/21 09:40:13;;;;;;;3.42;1.10;;;;;;;19.31;100.00;100875.03;5008928;28;20419;-85
2022/06/21 09:42:53;;;;;;;4.25;1.20;;;;;;;19.59;100.00;100880.03;5023687;28;20431;-85
2022/06/21 09:45:32;;;;;;;5.13;1.25;;;;;;;19.46;100.00;100879.16;5007661;28;20423;-88
2022/06/21 09:48:15;;;;;;;4.88;1.50;;;;;;;19.80;100.00;100882.03;5002356;28;20442;-83
2022/06/21 09:50:58;;;;;;;4.57;1.25;;;;;;;19.44;100.00;100884.19;5006362;28;20426;-82
2022/06/21 09:53:38;;;;;;;3.30;1.10;;;;;;;19.40;100.00;100882.47;5004131;28;20427;-81
2022/06/21 09:56:23;;;;;;;4.13;1.20;;;;;;;19.54;100.00;100886.59;5004015;28;20434;-82
2022/06/21 09:59:06;;;;;;;4.70;1.52;;;;;;;19.64;100.00;100884.56;5003377;28;20427;-88
2022/06/21 10:01:47;;;;;;;4.38;1.10;;;;;;;19.69;100.00;100887.13;5003454;28;20435;-84
2022/06/21 10:04:29;;;;;;;3.72;1.10;;;;;;;19.25;100.00;100887.44;4998600;28;20431;-84
2022/06/21 10:07:09;;;;;;;2.55;1.02;;;;;;;18.88;100.00;100886.31;5009903;28;20454;-86
2022/06/21 10:09:57;;;;;;;3.20;1.20;;;;;;;18.69;100.00;100890.25;5008554;28;20422;-82
2022/06/21 10:12:42;;;;;;;3.30;0.90;;;;;;;19.08;100.00;100890.28;5005057;28;20431;-83
2022/06/21 10:15:36;;;;;;;3.97;1.43;;;;;;;19.44;100.00;100886.97;5010445;28;20426;-87
2022/06/21 10:18:25;;;;;;;4.70;1.10;;;;;;;19.72;100.00;100880.94;5007351;28;20438;-88
2022/06/21 10:21:16;;;;;;;3.17;1.13;;;;;;;20.11;100.00;100886.31;5001957;28;20442;-84
2022/06/21 10:24:09;;;;;;;2.60;0.80;;;;;;;20.24;100.00;100896.25;5008044;28;20439;-82
2022/06/21 10:27:09;;;;;;;3.83;1.10;;;;;;;20.08;100.00;100896.09;4995250;28;20430;-83
2022/06/21 10:30:04;;;;;;;3.20;1.13;;;;;;;20.21;100.00;100889.44;5004111;28;20423;-83
2022/06/21 10:32:54;;;;;;;2.88;0.90;;;;;;;20.27;85.00;100884.50;4999008;28;20457;-84
2022/06/21 10:35:38;;;;;;;2.55;0.95;;;;;;;19.90;95.40;100883.56;5009176;28;21229;-82
2022/06/21 10:38:44;;;;;;;2.00;0.80;;;;;;;20.19;94.67;100883.47;4992022;28;20426;-86
2022/06/21 10:41:32;;;;;;;2.53;0.90;;;;;;;20.31;91.95;100884.63;4993504;28;20885;-84
2022/06/21 10:44:38;;;;;;;3.28;0.82;;;;;;;20.17;90.82;100885.75;4987424;28;20762;-81
2022/06/21 10:47:23;;;;;;;2.25;0.90;;;;;;;20.16;81.64;100880.56;5001586;28;20423;-86
2022/06/21 10:50:25;;;;;;;2.63;1.00;;;;;;;20.27;79.90;100880.94;4996316;28;20450;-86
2022/06/21 10:53:17;;;;;;;1.20;0.70;;;;;;;20.20;74.00;100878.72;4995525;28;20438;-86
2022/06/21 10:59:01;;;;;;;4.55;1.08;;;;;;;20.50;80.24;100862.78;4987587;28;20448;-84
2022/06/21 11:01:41;;;;;;;2.42;0.80;;;;;;;20.44;80.37;100849.53;4990493;28;20442;-82
2022/06/21 11:04:42;;;;;;;4.53;1.20;;;;;;;20.41;83.36;100867.63;4994586;28;20422;-86
2022/06/21 11:07:25;;;;;;;3.13;1.00;;;;;;;20.79;96.21;100858.25;4974100;28;20434;-84
2022/06/21 11:10:05;;;;;;;2.78;0.80;;;;;;;20.73;88.25;100854.09;4997762;28;20434;-84
2022/06/21 11:12:56;;;;;;;3.80;1.27;;;;;;;20.98;90.76;100854.13;4997281;28;20949;-86
2022/06/21 11:15:39;;;;;;;4.35;1.50;;;;;;;20.99;77.79;100844.63;4999847;28;21586;-85
2022/06/21 11:18:18;;;;;;;3.60;1.07;;;;;;;21.00;74.49;100849.03;4997116;28;20407;-84
2022/06/21 11:21:06;;;;;;;2.10;1.05;;;;;;;21.10;79.74;100833.91;4996278;28;21354;-83
2022/06/21 11:23:53;;;;;;;3.85;1.00;;;;;;;21.39;85.66;100839.16;5005965;28;20435;-85
2022/06/21 11:26:36;;;;;;;2.60;1.10;;;;;;;21.16;74.67;100838.88;4989482;28;20422;-84
2022/06/21 11:29:18;;;;;;;2.97;1.02;;;;;;;21.26;88.24;100843.13;5000968;28;20431;-85
2022/06/21 11:31:59;;;;;;;4.18;1.20;;;;;;;21.40;78.88;100838.03;5009386;28;20438;-85
2022/06/21 11:34:42;;;;;;;3.47;1.00;;;;;;;21.23;69.60;100839.06;5000701;28;20489;-83
2022/06/21 11:37:25;;;;;;;3.42;0.98;;;;;;;21.52;79.82;100839.13;4996363;28;20434;-85
2022/06/21 11:40:10;;;;;;;3.70;1.27;;;;;;;21.30;77.09;100832.97;4992732;28;20443;-87
2022/06/21 11:42:50;;;;;;;2.65;1.20;;;;;;;21.38;76.38;100837.56;4997591;28;20692;-86
2022/06/21 11:45:40;;;;;;;5.18;1.20;;;;;;;21.51;74.87;100845.81;5003572;28;20445;-88
2022/06/21 11:48:43;;;;;;;3.60;1.23;;;;;;;21.45;75.13;100844.44;5000899;28;20438;-85
2022/06/21 11:51:30;;;;;;;4.03;1.20;;;;;;;20.83;76.19;100841.78;4991989;28;20443;-85
2022/06/21 11:54:03;;;;;;;1.67;1.00;;;;;;;21.39;73.41;100844.72;4995272;28;20423;-84
2022/06/21 11:56:44;;;;;;;3.58;1.27;;;;;;;21.68;72.51;100844.75;5003265;28;20799;-84
2022/06/21 11:59:25;;;;;;;3.72;1.10;;;;;;;21.54;74.85;100842.38;4994207;28;20446;-86
2022/06/21 12:02:02;;;;;;;3.88;1.40;;;;;;;21.67;80.57;100838.41;4996030;28;20427;-86
2022/06/21 12:04:44;;;;;;;2.10;1.00;;;;;;;21.76;77.77;100826.38;4990943;28;20451;-83
2022/06/21 12:07:23;;;;;;;4.47;1.02;;;;;;;21.40;70.01;100828.88;4963959;28;20434;-85
2022/06/21 12:10:02;;;;;;;4.10;1.15;;;;;;;21.26;68.98;100832.03;4996648;28;20711;-85
2022/06/21 12:12:54;;;;;;;1.83;0.90;;;;;;;21.44;55.83;100832.56;4995718;28;20423;-84
2022/06/21 12:15:40;;;;;;;2.45;1.00;;;;;;;21.27;65.08;100828.13;5001437;28;20438;-83
2022/06/21 12:18:18;;;;;;;3.92;1.23;;;;;;;21.56;74.36;100823.47;4998068;28;20442;-86
2022/06/21 12:20:54;;;;;;;2.75;0.98;;;;;;;21.63;66.41;100811.78;4994683;28;20431;-87
2022/06/21 12:23:36;;;;;;;5.57;1.48;;;;;;;22.06;79.00;100821.28;5003088;28;21315;-83
2022/06/21 12:26:14;;;;;;;4.82;1.30;;;;;;;22.11;70.14;100814.66;5005435;28;20423;-84
2022/06/21 12:28:47;;;;;;;2.40;1.00;;;;;;;22.12;66.56;100810.72;4996074;28;20527;-85
2022/06/21 12:31:24;;;;;;;3.67;1.20;;;;;;;22.45;75.32;100821.50;5001899;28;20950;-84
2022/06/21 12:34:04;;;;;;;2.30;1.00;;;;;;;22.73;68.82;100806.72;4995070;28;20433;-85